createdAt,value
2022-10-16T00:01:28.316Z,13.00
2022-10-16T00:03:57.067Z,12.90
2022-10-16T00:06:24.813Z,12.90
2022-10-16T00:08:51.901Z,12.90
2022-10-16T00:11:20.740Z,12.90
2022-10-16T00:13:49.094Z,12.90
2022-10-16T00:16:17.311Z,12.90
2022-10-16T00:18:44.609Z,13.00
2022-10-16T00:21:17.349Z,13.00
2022-10-16T00:23:44.566Z,13.00
2022-10-16T00:26:14.565Z,13.00
2022-10-16T00:28:41.847Z,13.00
2022-10-16T00:31:11.704Z,13.00
2022-10-16T00:33:40.576Z,13.00
2022-10-16T00:36:10.477Z,13.00
2022-10-16T00:38:38.734Z,12.90
2022-10-16T00:41:11.606Z,13.00
2022-10-16T00:43:42.901Z,13.00
2022-10-16T00:46:27.745Z,12.90
2022-10-16T00:49:02.547Z,12.90
2022-10-16T00:51:36.557Z,12.90
2022-10-16T00:54:12.671Z,12.90
2022-10-16T00:56:40.176Z,12.90
2022-10-16T00:59:17.150Z,12.90
2022-10-16T01:01:44.015Z,12.90
2022-10-16T01:04:10.952Z,12.90
2022-10-16T01:06:49.897Z,12.80
2022-10-16T01:09:41.435Z,12.80
2022-10-16T01:12:13.314Z,12.70
2022-10-16T01:14:49.315Z,12.70
2022-10-16T01:17:21.038Z,12.60
2022-10-16T01:20:02.827Z,12.60
2022-10-16T01:22:55.421Z,12.60
2022-10-16T01:25:57.746Z,12.60
2022-10-16T01:28:33.178Z,12.70
2022-10-16T01:31:02.162Z,12.60
2022-10-16T01:33:41.117Z,12.60
2022-10-16T01:36:14.360Z,12.60
2022-10-16T01:38:44.385Z,12.60
2022-10-16T01:41:17.042Z,12.60
2022-10-16T01:43:58.898Z,12.60
2022-10-16T01:46:26.887Z,12.60
2022-10-16T01:48:54.837Z,12.50
2022-10-16T01:51:23.059Z,12.50
2022-10-16T01:53:54.422Z,12.40
2022-10-16T01:56:23.623Z,12.40
2022-10-16T01:59:06.325Z,12.40
2022-10-16T02:01:36.182Z,12.50
2022-10-16T02:04:10.108Z,12.40
2022-10-16T02:06:37.100Z,12.40
2022-10-16T02:09:04.028Z,12.40
2022-10-16T02:11:30.969Z,12.30
2022-10-16T02:14:05.338Z,12.30
2022-10-16T02:16:44.360Z,12.20
2022-10-16T02:19:14.631Z,12.10
2022-10-16T02:21:58.597Z,12.10
2022-10-16T02:24:48.419Z,12.10
2022-10-16T02:27:31.247Z,12.10
2022-10-16T02:30:08.895Z,12.20
2022-10-16T02:32:39.934Z,12.30
2022-10-16T02:35:08.675Z,12.20
2022-10-16T02:37:36.649Z,12.30
2022-10-16T02:40:06.021Z,12.30
2022-10-16T02:42:40.940Z,12.30
2022-10-16T02:45:09.378Z,12.10
2022-10-16T02:47:36.481Z,12.10
2022-10-16T02:50:04.147Z,12.10
2022-10-16T02:52:31.126Z,11.90
2022-10-16T02:54:57.941Z,11.90
2022-10-16T02:57:25.430Z,11.90
2022-10-16T02:59:52.483Z,11.90
2022-10-16T03:02:19.794Z,11.80
2022-10-16T03:04:46.614Z,11.70
2022-10-16T03:07:13.571Z,11.70
2022-10-16T03:09:40.526Z,11.70
2022-10-16T03:12:07.710Z,11.70
2022-10-16T03:14:34.857Z,11.80
2022-10-16T03:17:01.780Z,11.90
2022-10-16T03:19:28.600Z,11.80
2022-10-16T03:21:55.458Z,11.90
2022-10-16T03:24:22.267Z,11.90
2022-10-16T03:26:49.104Z,11.80
2022-10-16T03:29:15.976Z,11.90
2022-10-16T03:31:42.835Z,11.90
2022-10-16T03:34:09.735Z,11.90
2022-10-16T03:36:36.761Z,12.00
2022-10-16T03:39:03.735Z,12.10
2022-10-16T03:41:30.736Z,12.10
2022-10-16T03:43:57.586Z,12.20
2022-10-16T03:46:24.511Z,12.20
2022-10-16T03:48:51.322Z,12.10
2022-10-16T03:51:18.179Z,12.10
2022-10-16T03:53:45.019Z,12.10
2022-10-16T03:56:11.894Z,12.20
2022-10-16T03:58:38.751Z,12.20
2022-10-16T04:01:05.705Z,12.20
2022-10-16T04:03:32.795Z,12.20
2022-10-16T04:05:59.834Z,12.20
2022-10-16T04:08:26.714Z,12.10
2022-10-16T04:10:53.567Z,12.20
2022-10-16T04:15:52.317Z,12.20
2022-10-16T04:18:19.144Z,12.30
2022-10-16T04:20:46.038Z,12.30
2022-10-16T04:23:12.896Z,12.30
2022-10-16T04:25:39.816Z,12.30
2022-10-16T04:28:06.664Z,12.30
2022-10-16T04:30:34.638Z,12.30
2022-10-16T04:35:33.274Z,12.40
2022-10-16T04:38:00.369Z,12.50
2022-10-16T04:40:27.265Z,12.50
2022-10-16T04:42:54.165Z,12.50
2022-10-16T04:45:20.990Z,12.50
2022-10-16T04:47:47.834Z,12.60
2022-10-16T04:50:14.710Z,12.60
2022-10-16T04:52:43.881Z,12.70
2022-10-16T04:55:10.923Z,12.70
2022-10-16T04:57:37.840Z,12.80
2022-10-16T05:00:05.141Z,12.80
2022-10-16T05:02:32.029Z,12.80
2022-10-16T05:04:58.884Z,12.90
2022-10-16T05:07:25.891Z,12.90
2022-10-16T05:09:52.898Z,13.00
2022-10-16T05:12:19.956Z,13.00
2022-10-16T05:14:46.808Z,13.00
2022-10-16T05:17:13.685Z,13.00
2022-10-16T05:19:40.526Z,13.00
2022-10-16T05:22:07.519Z,13.00
2022-10-16T05:24:34.342Z,13.10
2022-10-16T05:27:01.234Z,13.00
2022-10-16T05:29:28.109Z,13.00
2022-10-16T05:31:55.012Z,12.90
2022-10-16T05:34:22.365Z,12.90
2022-10-16T05:36:49.302Z,12.90
2022-10-16T05:39:16.847Z,12.90
2022-10-16T05:41:44.666Z,12.90
2022-10-16T05:44:11.936Z,12.80
2022-10-16T05:46:38.795Z,12.80
2022-10-16T05:49:05.637Z,12.80
2022-10-16T05:51:32.482Z,12.80
2022-10-16T05:53:59.344Z,12.70
2022-10-16T05:56:26.319Z,12.70
2022-10-16T05:58:53.174Z,12.80
2022-10-16T06:01:21.991Z,12.80
2022-10-16T06:03:49.054Z,12.80
2022-10-16T06:06:18.489Z,12.90
2022-10-16T06:08:47.119Z,12.90
2022-10-16T06:11:18.021Z,13.00
2022-10-16T06:13:46.868Z,13.00
2022-10-16T06:16:14.222Z,13.00
2022-10-16T06:18:41.335Z,13.00
2022-10-16T06:21:10.842Z,13.10
2022-10-16T06:23:37.915Z,13.10
2022-10-16T06:26:13.350Z,13.20
2022-10-16T06:28:40.900Z,13.20
2022-10-16T06:31:09.974Z,13.30
2022-10-16T06:33:37.709Z,13.40
2022-10-16T06:36:07.200Z,13.40
2022-10-16T06:38:34.769Z,13.40
2022-10-16T06:41:01.871Z,13.50
2022-10-16T06:43:33.550Z,13.50
2022-10-16T06:46:02.191Z,13.60
2022-10-16T06:48:30.569Z,13.60
2022-10-16T06:51:01.398Z,13.60
2022-10-16T06:53:36.032Z,13.70
2022-10-16T06:56:18.656Z,13.70
2022-10-16T06:58:46.332Z,13.70
2022-10-16T07:01:14.401Z,13.70
2022-10-16T07:03:42.998Z,13.80
2022-10-16T07:06:12.092Z,13.90
2022-10-16T07:08:41.411Z,14.00
2022-10-16T07:11:10.862Z,14.00
2022-10-16T07:13:39.160Z,14.10
2022-10-16T07:16:14.282Z,14.10
2022-10-16T07:18:43.282Z,14.10
2022-10-16T07:21:20.301Z,14.30
2022-10-16T07:23:51.941Z,14.30
2022-10-16T07:26:18.933Z,14.40
2022-10-16T07:28:46.116Z,14.50
2022-10-16T07:31:15.433Z,14.60
2022-10-16T07:33:45.382Z,14.60
2022-10-16T07:36:16.247Z,14.70
2022-10-16T07:38:43.817Z,14.80
2022-10-16T07:41:13.081Z,14.90
2022-10-16T07:43:40.550Z,14.90
2022-10-16T07:46:07.546Z,15.00
2022-10-16T07:48:35.872Z,15.00
2022-10-16T07:51:07.471Z,15.00
2022-10-16T07:53:34.852Z,14.90
2022-10-16T07:56:04.120Z,15.00
2022-10-16T07:58:31.658Z,15.00
2022-10-16T08:00:59.404Z,14.90
2022-10-16T08:03:26.830Z,14.80
2022-10-16T08:05:53.823Z,14.70
2022-10-16T08:08:21.455Z,14.70
2022-10-16T08:10:48.343Z,14.60
2022-10-16T08:13:16.353Z,14.60
2022-10-16T08:15:44.569Z,14.60
2022-10-16T08:18:13.159Z,14.70
2022-10-16T08:20:40.756Z,14.80
2022-10-16T08:23:08.000Z,14.90
2022-10-16T08:25:38.620Z,14.90
2022-10-16T08:28:07.264Z,15.00
2022-10-16T08:30:35.219Z,15.00
2022-10-16T08:33:02.622Z,15.10
2022-10-16T08:35:29.520Z,15.10
2022-10-16T08:37:56.536Z,15.20
2022-10-16T08:40:35.365Z,15.20
2022-10-16T08:43:14.531Z,15.20
2022-10-16T08:46:28.798Z,15.20
2022-10-16T08:49:00.259Z,15.30
2022-10-16T08:51:31.961Z,15.40
2022-10-16T08:54:17.206Z,15.40
2022-10-16T08:56:44.103Z,15.50
2022-10-16T08:59:21.563Z,15.50
2022-10-16T09:01:52.220Z,15.60
2022-10-16T09:04:27.767Z,15.50
2022-10-16T09:07:05.154Z,15.50
2022-10-16T09:09:56.567Z,15.60
2022-10-16T09:12:55.683Z,15.70
2022-10-16T09:15:35.802Z,15.70
2022-10-16T09:18:30.070Z,15.70
2022-10-16T09:21:04.631Z,15.80
2022-10-16T09:23:38.708Z,15.90
2022-10-16T09:26:10.762Z,15.90
2022-10-16T09:28:37.705Z,16.00
2022-10-16T09:31:04.745Z,16.10
2022-10-16T09:33:37.386Z,16.20
2022-10-16T09:36:06.762Z,16.50
2022-10-16T09:38:35.289Z,16.60
2022-10-16T09:41:20.323Z,16.90
2022-10-16T09:43:47.131Z,17.10
2022-10-16T09:46:29.369Z,17.20
2022-10-16T09:49:05.691Z,17.40
2022-10-16T09:51:38.265Z,17.60
2022-10-16T09:54:11.032Z,17.40
2022-10-16T09:56:41.593Z,17.60
2022-10-16T09:59:25.080Z,17.60
2022-10-16T10:01:54.579Z,17.30
2022-10-16T10:04:23.822Z,17.30
2022-10-16T10:06:56.388Z,17.50
2022-10-16T10:09:28.711Z,17.80
2022-10-16T10:12:00.245Z,18.00
2022-10-16T10:14:38.972Z,17.80
2022-10-16T10:17:05.797Z,17.90
2022-10-16T10:19:48.530Z,17.90
2022-10-16T10:22:43.254Z,17.90
2022-10-16T10:25:10.235Z,17.60
2022-10-16T10:27:59.944Z,17.60
2022-10-16T10:30:35.888Z,17.40
2022-10-16T10:33:33.885Z,17.30
2022-10-16T10:36:00.662Z,17.00
2022-10-16T10:38:37.524Z,16.90
2022-10-16T10:41:19.571Z,17.30
2022-10-16T10:43:53.826Z,17.70
2022-10-16T10:46:36.037Z,18.30
2022-10-16T10:49:09.082Z,18.50
2022-10-16T10:51:41.813Z,18.50
2022-10-16T10:54:22.412Z,18.60
2022-10-16T10:57:08.705Z,18.80
2022-10-16T11:00:08.241Z,18.70
2022-10-16T11:02:49.930Z,18.80
2022-10-16T11:05:28.475Z,19.10
2022-10-16T11:08:03.458Z,19.50
2022-10-16T11:10:57.737Z,19.50
2022-10-16T11:13:46.676Z,19.10
2022-10-16T11:16:25.817Z,19.20
2022-10-16T11:19:11.632Z,19.30
2022-10-16T11:21:58.895Z,19.00
2022-10-16T11:24:49.244Z,18.80
2022-10-16T11:27:21.472Z,18.90
2022-10-16T11:29:58.308Z,18.40
2022-10-16T11:32:51.761Z,18.20
2022-10-16T11:35:32.584Z,17.90
2022-10-16T11:38:02.687Z,17.80
2022-10-16T11:40:35.467Z,18.30
2022-10-16T11:43:42.682Z,19.20
2022-10-16T11:46:14.142Z,20.10
2022-10-16T11:48:51.749Z,20.30
2022-10-16T11:51:24.393Z,19.90
2022-10-16T11:54:19.114Z,19.60
2022-10-16T11:56:48.401Z,20.00
2022-10-16T11:59:33.284Z,20.20
2022-10-16T12:02:37.229Z,19.80
2022-10-16T12:05:19.389Z,19.60
2022-10-16T12:08:11.559Z,19.20
2022-10-16T12:13:35.154Z,18.90
2022-10-16T12:16:21.612Z,18.40
2022-10-16T12:18:49.886Z,18.30
2022-10-16T12:21:20.076Z,18.40
2022-10-16T12:23:53.019Z,18.80
2022-10-16T12:26:28.510Z,18.90
2022-10-16T12:28:57.180Z,18.80
2022-10-16T12:31:25.230Z,18.70
2022-10-16T12:34:00.618Z,18.90
2022-10-16T12:36:34.263Z,19.00
2022-10-16T12:39:02.403Z,19.50
2022-10-16T12:41:40.746Z,19.60
2022-10-16T12:44:27.399Z,19.80
2022-10-16T12:46:54.384Z,20.10
2022-10-16T12:49:36.546Z,20.30
2022-10-16T12:52:04.386Z,20.30
2022-10-16T12:54:42.172Z,19.90
2022-10-16T12:57:36.757Z,20.00
2022-10-16T13:00:05.956Z,20.30
2022-10-16T13:02:51.112Z,20.20
2022-10-16T13:08:22.974Z,20.00
2022-10-16T13:11:27.651Z,19.70
2022-10-16T13:14:29.727Z,20.00
2022-10-16T13:17:19.470Z,20.20
2022-10-16T13:20:29.639Z,20.30
2022-10-16T13:23:28.866Z,19.80
2022-10-16T13:26:08.611Z,20.40
2022-10-16T13:28:38.998Z,20.70
2022-10-16T13:31:11.763Z,20.30
2022-10-16T13:33:45.651Z,19.90
2022-10-16T13:36:25.084Z,19.90
2022-10-16T13:39:13.857Z,19.90
2022-10-16T13:41:41.726Z,19.80
2022-10-16T13:44:20.955Z,19.10
2022-10-16T13:46:47.985Z,19.10
2022-10-16T13:49:17.526Z,19.30
2022-10-16T13:51:59.405Z,19.00
2022-10-16T13:54:29.669Z,18.90
2022-10-16T13:57:03.442Z,19.10
2022-10-16T13:59:39.905Z,18.90
2022-10-16T14:02:20.080Z,18.90
2022-10-16T14:04:48.386Z,19.40
2022-10-16T14:07:26.373Z,19.80
2022-10-16T14:09:54.381Z,19.20
2022-10-16T14:12:25.519Z,18.80
2022-10-16T14:14:56.240Z,18.80
2022-10-16T14:17:28.556Z,19.20
2022-10-16T14:20:06.909Z,19.50
2022-10-16T14:22:37.508Z,19.80
2022-10-16T14:25:30.286Z,20.00
2022-10-16T14:28:15.759Z,19.80
2022-10-16T14:30:56.567Z,19.90
2022-10-16T14:33:24.879Z,20.00
2022-10-16T14:36:10.116Z,20.50
2022-10-16T14:38:39.044Z,20.80
2022-10-16T14:41:06.852Z,20.70
2022-10-16T14:43:47.382Z,20.70
2022-10-16T14:46:28.013Z,20.70
2022-10-16T14:49:04.121Z,20.70
2022-10-16T14:51:31.173Z,20.90
2022-10-16T14:54:00.381Z,20.90
2022-10-16T14:56:33.159Z,20.90
2022-10-16T14:59:01.781Z,20.80
2022-10-16T15:01:28.670Z,20.50
2022-10-16T15:03:56.248Z,20.00
2022-10-16T15:06:23.264Z,19.40
2022-10-16T15:08:50.310Z,19.20
2022-10-16T15:11:18.963Z,19.10
2022-10-16T15:13:46.502Z,18.70
2022-10-16T15:16:17.757Z,18.40
2022-10-16T15:18:45.215Z,18.30
2022-10-16T15:21:28.468Z,18.20
2022-10-16T15:23:55.667Z,18.10
2022-10-16T15:26:22.541Z,18.10
2022-10-16T15:28:49.446Z,18.20
2022-10-16T15:31:16.513Z,18.30
2022-10-16T15:33:43.665Z,18.30
2022-10-16T15:36:10.818Z,18.40
2022-10-16T15:38:37.725Z,18.60
2022-10-16T15:41:04.658Z,18.70
2022-10-16T15:43:31.606Z,18.80
2022-10-16T15:46:07.115Z,18.80
2022-10-16T15:48:34.649Z,18.50
2022-10-16T15:51:05.376Z,18.20
2022-10-16T15:53:32.291Z,17.90
2022-10-16T15:55:59.169Z,17.70
2022-10-16T15:58:26.296Z,17.40
2022-10-16T16:00:57.645Z,17.10
2022-10-16T16:03:24.913Z,16.70
2022-10-16T16:05:51.722Z,16.50
2022-10-16T16:08:18.690Z,16.20
2022-10-16T16:10:45.635Z,15.90
2022-10-16T16:13:12.861Z,15.70
2022-10-16T16:15:41.629Z,15.50
2022-10-16T16:18:10.666Z,15.30
2022-10-16T16:20:37.930Z,15.20
2022-10-16T16:23:04.798Z,15.00
2022-10-16T16:25:31.710Z,14.90
2022-10-16T16:27:58.580Z,14.80
2022-10-16T16:30:28.202Z,14.80
2022-10-16T16:32:55.414Z,14.70
2022-10-16T16:35:22.346Z,14.70
2022-10-16T16:37:49.670Z,14.60
2022-10-16T16:40:16.595Z,14.50
2022-10-16T16:42:43.510Z,14.50
2022-10-16T16:45:10.680Z,14.40
2022-10-16T16:47:39.380Z,14.40
2022-10-16T16:50:07.926Z,14.40
2022-10-16T16:52:36.216Z,14.50
2022-10-16T16:55:03.350Z,14.40
2022-10-16T16:57:30.440Z,14.40
2022-10-16T16:59:57.874Z,14.40
2022-10-16T17:02:24.839Z,14.40
2022-10-16T17:04:51.891Z,14.30
2022-10-16T17:07:23.202Z,14.20
2022-10-16T17:09:51.196Z,14.10
2022-10-16T17:12:18.071Z,14.20
2022-10-16T17:14:45.077Z,14.10
2022-10-16T17:17:11.908Z,14.10
2022-10-16T17:19:38.725Z,14.00
2022-10-16T17:22:05.667Z,13.90
2022-10-16T17:24:32.524Z,13.80
2022-10-16T17:26:59.435Z,13.80
2022-10-16T17:29:26.407Z,13.60
2022-10-16T17:31:53.305Z,13.60
2022-10-16T17:34:20.189Z,13.50
2022-10-16T17:36:47.784Z,13.50
2022-10-16T17:39:17.928Z,13.40
2022-10-16T17:41:46.515Z,13.40
2022-10-16T17:44:20.237Z,13.40
2022-10-16T17:46:48.899Z,13.30
2022-10-16T17:49:16.960Z,13.30
2022-10-16T17:51:44.567Z,13.20
2022-10-16T17:54:14.534Z,13.20
2022-10-16T17:56:41.878Z,13.10
2022-10-16T17:59:11.425Z,13.10
2022-10-16T18:01:40.707Z,13.00
2022-10-16T18:04:13.143Z,12.90
2022-10-16T18:06:41.612Z,12.80
2022-10-16T18:09:10.698Z,12.90
2022-10-16T18:11:38.253Z,12.80
2022-10-16T18:14:05.528Z,12.80
2022-10-16T18:16:33.352Z,12.70
2022-10-16T18:19:00.381Z,12.70
2022-10-16T18:21:28.592Z,12.70
2022-10-16T18:23:57.441Z,12.80
2022-10-16T18:26:25.705Z,12.80
2022-10-16T18:28:54.028Z,12.90
2022-10-16T18:31:23.128Z,12.90
2022-10-16T18:33:51.290Z,12.90
2022-10-16T18:36:21.296Z,12.90
2022-10-16T18:38:48.466Z,12.80
2022-10-16T18:41:15.601Z,12.90
2022-10-16T18:43:42.545Z,12.90
2022-10-16T18:46:20.793Z,12.80
2022-10-16T18:48:48.492Z,12.80
2022-10-16T18:51:28.185Z,12.80
2022-10-16T18:53:58.179Z,12.90
2022-10-16T18:56:25.167Z,12.90
2022-10-16T18:58:59.104Z,12.90
2022-10-16T19:01:28.904Z,12.90
2022-10-16T19:04:01.224Z,13.00
2022-10-16T19:06:30.329Z,13.00
2022-10-16T19:08:57.552Z,13.00
2022-10-16T19:11:26.010Z,13.00
2022-10-16T19:13:56.395Z,12.90
2022-10-16T19:16:25.937Z,12.90
2022-10-16T19:18:55.458Z,12.90
2022-10-16T19:21:24.640Z,13.00
2022-10-16T19:23:54.972Z,12.90
2022-10-16T19:26:23.836Z,12.90
2022-10-16T19:28:53.794Z,12.80
2022-10-16T19:31:23.449Z,12.90
2022-10-16T19:33:55.398Z,12.90
2022-10-16T19:36:25.896Z,12.90
2022-10-16T19:38:56.594Z,12.90
2022-10-16T19:41:24.470Z,12.90
2022-10-16T19:43:51.457Z,12.90
2022-10-16T19:46:25.511Z,12.90
2022-10-16T19:49:00.624Z,12.90
2022-10-16T19:51:28.522Z,12.90
2022-10-16T19:53:57.924Z,12.90
2022-10-16T19:56:27.700Z,12.90
2022-10-16T19:58:56.785Z,12.80
2022-10-16T20:01:25.537Z,12.80
2022-10-16T20:03:52.511Z,12.90
2022-10-16T20:06:20.283Z,12.90
2022-10-16T20:08:49.842Z,13.00
2022-10-16T20:11:19.107Z,12.90
2022-10-16T20:13:46.263Z,12.90
2022-10-16T20:16:14.243Z,13.00
2022-10-16T20:18:41.460Z,13.00
2022-10-16T20:21:14.168Z,13.10
2022-10-16T20:23:41.326Z,13.10
2022-10-16T20:26:11.479Z,13.10
2022-10-16T20:28:42.332Z,13.10
2022-10-16T20:31:24.216Z,13.10
2022-10-16T20:33:53.155Z,13.10
2022-10-16T20:36:21.893Z,13.20
2022-10-16T20:38:49.322Z,13.30
2022-10-16T20:41:17.562Z,13.40
2022-10-16T20:43:46.882Z,13.40
2022-10-16T20:46:15.759Z,13.40
2022-10-16T20:48:47.009Z,13.30
2022-10-16T20:51:22.220Z,13.30
2022-10-16T20:53:54.414Z,13.30
2022-10-16T20:56:22.539Z,13.40
2022-10-16T20:58:49.404Z,13.40
2022-10-16T21:01:18.585Z,13.50
2022-10-16T21:03:51.446Z,13.60
2022-10-16T21:06:18.383Z,13.70
2022-10-16T21:08:45.524Z,13.70
2022-10-16T21:11:33.567Z,13.70
2022-10-16T21:14:02.639Z,13.70
2022-10-16T21:16:29.983Z,13.50
2022-10-16T21:18:58.193Z,13.40
2022-10-16T21:21:28.545Z,13.50
2022-10-16T21:23:57.790Z,13.40
2022-10-16T21:26:26.503Z,13.40
2022-10-16T21:29:05.178Z,13.30
2022-10-16T21:31:33.297Z,13.20
2022-10-16T21:34:00.197Z,13.20
2022-10-16T21:36:29.657Z,13.10
2022-10-16T21:39:00.936Z,13.10
2022-10-16T21:41:29.224Z,13.10
2022-10-16T21:43:57.481Z,13.10
2022-10-16T21:46:28.018Z,13.00
2022-10-16T21:48:56.341Z,13.00
2022-10-16T21:51:37.402Z,13.00
2022-10-16T21:54:06.532Z,12.90
2022-10-16T21:56:34.442Z,12.90
2022-10-16T21:59:01.311Z,12.90
2022-10-16T22:01:29.178Z,12.90
2022-10-16T22:03:56.122Z,12.90
2022-10-16T22:06:25.655Z,12.90
2022-10-16T22:08:55.234Z,12.90
2022-10-16T22:11:25.025Z,13.00
2022-10-16T22:13:54.227Z,13.00
2022-10-16T22:16:26.135Z,13.10
2022-10-16T22:18:54.722Z,13.10
2022-10-16T22:21:22.071Z,13.10
2022-10-16T22:23:49.255Z,13.20
2022-10-16T22:26:16.357Z,13.20
2022-10-16T22:28:43.686Z,13.10
2022-10-16T22:31:13.695Z,13.10
2022-10-16T22:33:40.928Z,13.00
2022-10-16T22:36:10.685Z,13.00
2022-10-16T22:38:37.977Z,12.90
2022-10-16T22:41:11.638Z,12.90
2022-10-16T22:43:40.365Z,12.90
2022-10-16T22:46:09.773Z,12.90
2022-10-16T22:48:38.321Z,12.90
2022-10-16T22:51:11.604Z,12.80
2022-10-16T22:53:41.508Z,12.80
2022-10-16T22:56:09.889Z,12.80
2022-10-16T22:58:37.176Z,12.80
2022-10-16T23:01:13.812Z,12.70
2022-10-16T23:03:40.936Z,12.70
2022-10-16T23:06:07.943Z,12.60
2022-10-16T23:08:35.110Z,12.50
2022-10-16T23:11:09.757Z,12.50
2022-10-16T23:13:45.120Z,12.40
2022-10-16T23:16:14.234Z,12.40
2022-10-16T23:18:41.462Z,12.50
2022-10-16T23:21:14.379Z,12.50
2022-10-16T23:23:42.167Z,12.60
2022-10-16T23:26:14.518Z,12.70
2022-10-16T23:28:42.023Z,12.70
2022-10-16T23:31:09.943Z,12.80
2022-10-16T23:33:38.027Z,12.80
2022-10-16T23:36:10.104Z,12.70
2022-10-16T23:38:37.588Z,12.70
2022-10-16T23:41:05.487Z,12.70
2022-10-16T23:43:32.592Z,12.70
2022-10-16T23:45:59.747Z,12.70
2022-10-16T23:48:26.926Z,12.70
2022-10-16T23:50:54.088Z,12.80
2022-10-16T23:53:21.304Z,12.80
2022-10-16T23:55:48.386Z,12.80
2022-10-16T23:58:15.420Z,12.70
